UKHH/HRK METAR and TAF weather

Enter ICAO airport designator
Station Type Date Time Source
UKHH METAR 2022/01/26 19:30 UTC NOAA

UKHH 261930Z VRB01MPS 9999 OVC040 M07/M10 Q1016 NOSIG


Station Type Date Time Source
UKHH Decoded METAR 2022/01/26 19:30 UTC NOAA

Kharkiv, Ukraine (UKHH) 49-58N 036-08E 155M
Jan 26, 2022 - 02:30 PM EST / 2022.01.26 1930 UTC
Wind: Variable at 2 MPH (2 KT):0
Visibility: greater than 7 mile(s):0
Sky conditions: overcast
Temperature: 19 F (-7 C)
Dew Point: 14 F (-10 C)
Relative Humidity: 79%
Pressure (altimeter): 30.00 in. Hg (1016 hPa)
ob: UKHH 261930Z VRB01MPS 9999 OVC040 M07/M10 Q1016 NOSIG
cycle: 19

Station Type Date Time Source
UKHH TAF 2022/01/26 18:24 UTC NOAA

TAF UKHH 261708Z 2618/2718 27001MPS 2100 BR BKN007 TXM05/2712Z TNM12/2705Z
TEMPO 2618/2621 1200 -SHSN SCT003 BKN013CB
TEMPO 2621/2706 0300 FZFG VV001
BECMG 2706/2708 25005MPS 6000 NSW BKN008
BECMG 2715/2716 18002MPS 2100 BR SCT004 BKN007

Example: see airport list